Time;durP1;ratioP1;P1;durP2;ratioP2;P2;SDS_P1;SDS_P2;PMS_P1;PMS_P2;Temp;Humidity;BMP_temperature;BMP_pressure;BME280_temperature;BME280_humidity;BME280_pressure;Samples;Min_cycle;Max_cycle;Signal;HPM_P1;HPM_P2
2022/06/12 00:00:50;;;;;;;;;;;13.60;99.90;;;;;;5011020;28;20446;-76
2022/06/12 00:03:17;;;;;;;;;;;13.70;99.90;;;;;;5011166;28;19933;-76
2022/06/12 00:05:43;;;;;;;;;;;13.90;99.90;;;;;;5010133;28;20527;-76
2022/06/12 00:08:09;;;;;;;;;;;14.00;99.90;;;;;;5012897;28;20631;-76
2022/06/12 00:10:36;;;;;;;;;;;14.00;99.90;;;;;;5009140;28;19935;-75
2022/06/12 00:13:03;;;;;;;;;;;14.00;99.90;;;;;;5013051;28;19935;-76
2022/06/12 00:15:29;;;;;;;;;;;14.00;99.90;;;;;;5009650;28;21036;-76
2022/06/12 00:17:55;;;;;;;;;;;14.10;99.90;;;;;;5010111;28;19939;-76
2022/06/12 00:20:22;;;;;;;;;;;14.00;99.90;;;;;;5012017;28;19972;-76
2022/06/12 00:22:48;;;;;;;;;;;13.90;99.90;;;;;;5011648;28;19951;-76
2022/06/12 00:25:16;;;;;;;;;;;13.80;99.90;;;;;;5009465;28;19925;-76
2022/06/12 00:27:42;;;;;;;;;;;13.80;99.90;;;;;;5012029;28;19929;-76
2022/06/12 00:30:09;;;;;;;;;;;13.80;99.90;;;;;;5006680;28;19933;-76
2022/06/12 00:32:35;;;;;;;;;;;13.80;99.90;;;;;;5010928;28;19929;-76
2022/06/12 00:35:01;;;;;;;;;;;13.80;99.90;;;;;;5014485;28;20020;-76
2022/06/12 00:37:27;;;;;;;;;;;13.80;99.90;;;;;;5013205;28;19928;-76
2022/06/12 00:39:58;;;;;;;;;;;13.80;99.90;;;;;;4989781;28;20237;-76
2022/06/12 00:42:35;;;;;;;;;;;13.80;99.90;;;;;;5016235;28;20394;-76
2022/06/12 00:45:02;;;;;;;;;;;13.80;99.90;;;;;;4987879;28;19939;-76
2022/06/12 00:47:28;;;;;;;;;;;13.80;99.90;;;;;;5015757;28;19944;-76
2022/06/12 00:49:53;;;;;;;;;;;13.70;99.90;;;;;;5015508;28;20185;-75
2022/06/12 00:52:41;;;;;;;;;;;13.30;99.90;;;;;;5015350;28;19928;-76
2022/06/12 00:55:12;;;;;;;;;;;13.10;99.90;;;;;;4998039;28;19933;-76
2022/06/12 00:57:38;;;;;;;;;;;13.20;99.90;;;;;;4996351;28;19933;-75
2022/06/12 01:00:06;;;;;;;;;;;13.20;99.90;;;;;;5015625;28;19932;-76
2022/06/12 01:02:33;;;;;;;;;;;13.10;99.90;;;;;;5015670;28;19935;-76
2022/06/12 01:07:46;;;;;;;;;;;13.10;99.90;;;;;;4997469;28;20448;-76
2022/06/12 01:10:13;;;;;;;;;;;13.20;99.90;;;;;;5015032;28;19985;-77
2022/06/12 01:12:43;;;;;;;;;;;13.10;99.90;;;;;;4978173;28;19936;-77
2022/06/12 01:15:12;;;;;;;;;;;13.10;99.90;;;;;;4996100;28;19928;-76
2022/06/12 01:17:37;;;;;;;;;;;13.20;99.90;;;;;;4994334;28;20084;-77
2022/06/12 01:20:08;;;;;;;;;;;13.30;99.90;;;;;;5013785;28;20675;-77
2022/06/12 01:22:33;;;;;;;;;;;13.30;99.90;;;;;;5014807;28;19929;-77
2022/06/12 01:24:59;;;;;;;;;;;13.20;99.90;;;;;;5015027;28;20444;-77
2022/06/12 01:27:54;;;;;;;;;;;13.20;99.90;;;;;;5013578;28;19974;-77
2022/06/12 01:30:19;;;;;;;;;;;13.20;99.90;;;;;;4956184;28;19930;-76
2022/06/12 01:33:11;;;;;;;;;;;13.10;99.90;;;;;;5013048;28;20282;-77
2022/06/12 01:35:46;;;;;;;;;;;13.00;99.90;;;;;;4991554;28;20528;-77
2022/06/12 01:38:12;;;;;;;;;;;13.20;99.90;;;;;;4999378;28;19936;-76
2022/06/12 01:40:41;;;;;;;;;;;13.20;99.90;;;;;;5015235;28;19936;-77
2022/06/12 01:43:16;;;;;;;;;;;13.20;99.90;;;;;;5014525;28;20450;-76
2022/06/12 01:45:53;;;;;;;;;;;13.30;99.90;;;;;;5000128;28;19963;-77
2022/06/12 01:48:19;;;;;;;;;;;13.10;99.90;;;;;;4997987;28;19928;-77
2022/06/12 01:50:54;;;;;;;;;;;13.00;99.90;;;;;;4993562;28;20628;-77
2022/06/12 01:53:29;;;;;;;;;;;13.00;99.90;;;;;;5014435;28;19985;-77
2022/06/12 01:55:59;;;;;;;;;;;12.90;99.90;;;;;;5012452;28;20109;-77
2022/06/12 01:58:31;;;;;;;;;;;13.00;99.90;;;;;;5000111;28;19968;-77
2022/06/12 02:01:15;;;;;;;;;;;13.10;99.90;;;;;;5013859;28;20817;-77
2022/06/12 02:03:54;;;;;;;;;;;12.90;99.90;;;;;;5015579;28;20027;-77
2022/06/12 02:06:24;;;;;;;;;;;12.90;99.90;;;;;;5012260;28;19932;-77
2022/06/12 02:09:01;;;;;;;;;;;12.90;99.90;;;;;;4994823;28;20035;-76
2022/06/12 02:14:17;;;;;;;;;;;13.00;99.90;;;;;;5010463;28;20020;-77
2022/06/12 02:16:45;;;;;;;;;;;12.80;99.90;;;;;;5014049;28;20019;-77
2022/06/12 02:19:14;;;;;;;;;;;12.90;99.90;;;;;;5010871;28;19976;-77
2022/06/12 02:21:52;;;;;;;;;;;12.80;99.90;;;;;;4984506;28;19925;-77
2022/06/12 02:24:18;;;;;;;;;;;12.90;99.90;;;;;;4996639;28;20317;-77
2022/06/12 02:26:47;;;;;;;;;;;12.80;99.90;;;;;;4995535;28;20320;-77
2022/06/12 02:29:17;;;;;;;;;;;12.80;99.90;;;;;;5015009;28;19936;-77
2022/06/12 02:31:44;;;;;;;;;;;12.90;99.90;;;;;;5014500;28;20385;-77
2022/06/12 02:34:15;;;;;;;;;;;12.80;99.90;;;;;;5015554;28;20321;-76
2022/06/12 02:36:43;;;;;;;;;;;12.70;99.90;;;;;;5014317;28;19937;-76
2022/06/12 02:39:20;;;;;;;;;;;12.80;99.90;;;;;;5006280;28;19933;-77
2022/06/12 02:41:55;;;;;;;;;;;12.80;99.90;;;;;;5016337;28;20412;-77
2022/06/12 02:44:24;;;;;;;;;;;12.80;99.90;;;;;;5015744;28;19929;-77
2022/06/12 02:46:58;;;;;;;;;;;12.90;99.90;;;;;;4998295;28;19936;-77
2022/06/12 02:49:24;;;;;;;;;;;12.90;99.90;;;;;;5017364;28;19954;-77
2022/06/12 02:51:56;;;;;;;;;;;12.80;99.90;;;;;;5010284;28;20709;-77
2022/06/12 02:54:32;;;;;;;;;;;12.70;99.90;;;;;;5013179;28;19929;-76
2022/06/12 02:57:00;;;;;;;;;;;12.80;99.90;;;;;;5013721;28;20062;-77
2022/06/12 02:59:26;;;;;;;;;;;12.70;99.90;;;;;;5017484;28;20410;-77
2022/06/12 03:02:02;;;;;;;;;;;12.80;99.90;;;;;;4995879;28;19933;-77
2022/06/12 03:04:32;;;;;;;;;;;12.70;99.90;;;;;;5013542;28;19939;-77
2022/06/12 03:06:58;;;;;;;;;;;12.70;99.90;;;;;;5013490;28;20774;-77
2022/06/12 03:09:24;;;;;;;;;;;12.70;99.90;;;;;;5016582;28;19929;-77
2022/06/12 03:11:49;;;;;;;;;;;12.70;99.90;;;;;;5013571;28;19935;-77
2022/06/12 03:14:18;;;;;;;;;;;12.60;99.90;;;;;;5015200;28;19929;-76
2022/06/12 03:16:44;;;;;;;;;;;12.50;99.90;;;;;;5013561;28;19935;-77
2022/06/12 03:19:20;;;;;;;;;;;12.20;99.90;;;;;;5015467;28;19928;-76
2022/06/12 03:22:00;;;;;;;;;;;12.20;99.90;;;;;;5014586;28;19986;-76
2022/06/12 03:24:29;;;;;;;;;;;12.20;99.90;;;;;;4981591;28;19936;-76
2022/06/12 03:27:04;;;;;;;;;;;12.30;99.90;;;;;;5016280;28;20055;-77
2022/06/12 03:29:38;;;;;;;;;;;12.40;99.90;;;;;;5013756;28;19936;-77
2022/06/12 03:32:10;;;;;;;;;;;12.20;99.90;;;;;;5016039;28;19928;-77
2022/06/12 03:34:38;;;;;;;;;;;12.20;99.90;;;;;;5017286;28;19928;-77
2022/06/12 03:37:09;;;;;;;;;;;12.30;99.90;;;;;;5015175;28;20003;-76
2022/06/12 03:39:44;;;;;;;;;;;12.30;99.90;;;;;;4996241;28;19928;-76
2022/06/12 03:42:28;;;;;;;;;;;12.40;99.90;;;;;;5014662;28;20723;-76
2022/06/12 03:45:12;;;;;;;;;;;12.40;99.90;;;;;;5014519;28;19933;-74
2022/06/12 03:47:45;;;;;;;;;;;12.50;99.90;;;;;;5015034;28;19933;-74
2022/06/12 03:50:15;;;;;;;;;;;12.50;99.90;;;;;;5004011;28;19929;-77
2022/06/12 03:52:46;;;;;;;;;;;12.50;99.90;;;;;;5013802;28;19933;-77
2022/06/12 03:57:50;;;;;;;;;;;12.50;99.90;;;;;;5014734;28;19935;-77
2022/06/12 03:58:17;;;;;;;;;;;12.50;99.90;;;;;;4997186;28;19936;-76
2022/06/12 04:00:43;;;;;;;;;;;12.50;99.90;;;;;;5014491;28;19928;-76
2022/06/12 04:03:27;;;;;;;;;;;12.50;99.90;;;;;;5014055;28;19940;-77
2022/06/12 04:05:54;;;;;;;;;;;12.50;99.90;;;;;;5017269;28;20715;-77
2022/06/12 04:08:22;;;;;;;;;;;12.60;99.90;;;;;;5019456;28;19929;-76
2022/06/12 04:10:49;;;;;;;;;;;12.50;99.90;;;;;;4999876;28;19933;-77
2022/06/12 04:13:15;;;;;;;;;;;12.50;99.90;;;;;;5021067;28;19929;-76
2022/06/12 04:15:43;;;;;;;;;;;12.70;99.90;;;;;;5018414;28;19928;-76
2022/06/12 04:18:09;;;;;;;;;;;12.70;99.90;;;;;;5021922;28;20282;-76
2022/06/12 04:20:38;;;;;;;;;;;12.80;99.90;;;;;;5019239;28;19929;-76
2022/06/12 04:23:27;;;;;;;;;;;12.80;99.90;;;;;;5018403;28;19994;-76
2022/06/12 04:25:59;;;;;;;;;;;12.90;99.90;;;;;;4989018;28;20825;-76
2022/06/12 04:28:24;;;;;;;;;;;12.80;99.90;;;;;;5016902;28;20008;-75
2022/06/12 04:30:50;;;;;;;;;;;13.00;99.90;;;;;;5015680;28;20005;-76
2022/06/12 04:33:34;;;;;;;;;;;13.00;99.90;;;;;;5014840;28;19936;-77
2022/06/12 04:36:00;;;;;;;;;;;13.10;99.90;;;;;;5015746;28;20324;-77
2022/06/12 04:38:26;;;;;;;;;;;13.30;99.90;;;;;;4998042;28;19935;-76
2022/06/12 04:40:52;;;;;;;;;;;13.50;99.90;;;;;;5015047;28;20353;-76
2022/06/12 04:43:18;;;;;;;;;;;15.40;99.90;;;;;;5016631;28;19933;-77
2022/06/12 04:45:44;;;;;;;;;;;16.70;99.90;;;;;;4997234;28;19928;-77
2022/06/12 04:48:15;;;;;;;;;;;17.90;99.90;;;;;;5013020;28;20026;-76
2022/06/12 04:50:41;;;;;;;;;;;19.00;99.90;;;;;;5013414;28;19936;-77
2022/06/12 04:53:06;;;;;;;;;;;19.80;99.90;;;;;;5014946;28;19928;-77
2022/06/12 04:55:33;;;;;;;;;;;20.30;99.90;;;;;;5013179;28;19940;-77
2022/06/12 04:58:00;;;;;;;;;;;21.00;99.90;;;;;;4997806;28;20033;-77
2022/06/12 05:00:26;;;;;;;;;;;21.60;99.90;;;;;;5016818;28;19932;-77
2022/06/12 05:02:52;;;;;;;;;;;22.10;99.90;;;;;;5012751;28;20970;-77
2022/06/12 05:05:17;;;;;;;;;;;22.70;99.90;;;;;;4994651;28;19937;-77
2022/06/12 05:07:43;;;;;;;;;;;22.80;99.90;;;;;;4997109;28;19939;-78
2022/06/12 05:10:18;;;;;;;;;;;23.00;99.90;;;;;;5014713;28;19935;-78
2022/06/12 05:12:44;;;;;;;;;;;23.60;99.90;;;;;;5015369;28;20019;-77
2022/06/12 05:15:12;;;;;;;;;;;24.10;99.90;;;;;;5014187;28;19935;-77
2022/06/12 05:17:41;;;;;;;;;;;24.30;99.90;;;;;;5012146;28;19933;-77
2022/06/12 05:20:10;;;;;;;;;;;24.60;99.90;;;;;;5016029;28;20395;-77
2022/06/12 05:22:35;;;;;;;;;;;24.70;99.90;;;;;;5015750;28;19936;-78
2022/06/12 05:25:01;;;;;;;;;;;24.50;99.90;;;;;;5013975;28;19928;-78
2022/06/12 05:27:26;;;;;;;;;;;25.00;99.90;;;;;;4979171;28;20602;-77
2022/06/12 05:29:52;;;;;;;;;;;24.80;99.90;;;;;;4997652;28;20092;-77
2022/06/12 05:32:19;;;;;;;;;;;25.00;99.90;;;;;;4999222;28;19932;-78
2022/06/12 05:34:45;;;;;;;;;;;24.70;99.90;;;;;;5014704;28;19928;-77
2022/06/12 05:37:11;;;;;;;;;;;25.10;99.90;;;;;;4996186;28;20508;-77
2022/06/12 05:39:37;;;;;;;;;;;24.40;99.90;;;;;;5015518;28;20027;-78
2022/06/12 05:42:03;;;;;;;;;;;24.40;99.90;;;;;;5009432;28;19929;-77
2022/06/12 05:44:29;;;;;;;;;;;24.40;99.90;;;;;;4985093;28;20011;-77
2022/06/12 05:46:55;;;;;;;;;;;23.40;99.90;;;;;;5022205;28;20005;-77
2022/06/12 05:49:21;;;;;;;;;;;22.60;99.90;;;;;;5018274;28;19963;-78
2022/06/12 05:51:46;;;;;;;;;;;21.40;99.90;;;;;;5019832;28;19936;-78
2022/06/12 05:54:12;;;;;;;;;;;21.70;99.90;;;;;;5000867;28;19932;-77
2022/06/12 05:56:38;;;;;;;;;;;21.40;99.90;;;;;;5017968;28;19979;-78
2022/06/12 05:59:04;;;;;;;;;;;21.40;99.90;;;;;;5015226;28;19936;-77
2022/06/12 06:01:30;;;;;;;;;;;21.00;99.90;;;;;;4999341;28;20069;-77
2022/06/12 06:03:56;;;;;;;;;;;21.10;99.90;;;;;;5014657;28;20560;-77
2022/06/12 06:06:29;;;;;;;;;;;21.10;99.90;;;;;;5016710;28;19933;-78
2022/06/12 06:08:56;;;;;;;;;;;20.80;99.90;;;;;;5015165;28;19943;-78
2022/06/12 06:11:21;;;;;;;;;;;20.90;99.90;;;;;;4998777;28;19976;-78
2022/06/12 06:13:47;;;;;;;;;;;20.70;99.90;;;;;;5012160;28;20008;-78
2022/06/12 06:16:13;;;;;;;;;;;20.90;99.90;;;;;;4997093;28;19939;-78
2022/06/12 06:18:40;;;;;;;;;;;20.90;99.90;;;;;;5014489;28;19975;-79
2022/06/12 06:21:06;;;;;;;;;;;20.40;99.90;;;;;;4993995;28;19978;-78
2022/06/12 06:23:32;;;;;;;;;;;20.30;99.90;;;;;;4993822;28;20377;-78
2022/06/12 06:25:57;;;;;;;;;;;20.20;99.90;;;;;;5015745;28;19939;-78
2022/06/12 06:28:23;;;;;;;;;;;20.30;99.90;;;;;;5016618;28;19929;-79
2022/06/12 06:30:48;;;;;;;;;;;20.60;99.90;;;;;;5014244;28;20083;-78
2022/06/12 06:33:14;;;;;;;;;;;20.70;99.90;;;;;;4995354;28;19929;-78
2022/06/12 06:35:40;;;;;;;;;;;20.70;99.90;;;;;;5015595;28;19925;-78
2022/06/12 06:38:06;;;;;;;;;;;20.80;99.90;;;;;;5013191;28;19929;-80
2022/06/12 06:40:32;;;;;;;;;;;20.70;99.90;;;;;;5013752;28;20760;-79
2022/06/12 06:42:58;;;;;;;;;;;20.60;99.90;;;;;;5014095;28;19951;-77
2022/06/12 06:48:09;;;;;;;;;;;20.70;99.90;;;;;;5014762;28;19932;-79
2022/06/12 06:50:36;;;;;;;;;;;20.80;99.90;;;;;;5013505;28;19929;-78
2022/06/12 06:53:02;;;;;;;;;;;20.80;99.90;;;;;;4996536;28;19983;-78
2022/06/12 06:55:29;;;;;;;;;;;20.90;99.90;;;;;;4996583;28;20071;-78
2022/06/12 06:57:57;;;;;;;;;;;21.10;99.90;;;;;;4999637;28;20578;-78
2022/06/12 07:00:25;;;;;;;;;;;21.00;99.90;;;;;;5015069;28;20360;-78
2022/06/12 07:02:51;;;;;;;;;;;21.00;99.90;;;;;;5012779;28;20016;-79
2022/06/12 07:05:17;;;;;;;;;;;21.10;99.90;;;;;;4995593;28;20560;-78
2022/06/12 07:07:43;;;;;;;;;;;21.10;99.90;;;;;;4998314;28;19994;-79
2022/06/12 07:10:11;;;;;;;;;;;21.00;99.90;;;;;;4970038;28;19932;-79
2022/06/12 07:12:38;;;;;;;;;;;20.90;99.90;;;;;;5013411;28;19928;-78
2022/06/12 07:15:03;;;;;;;;;;;21.00;99.90;;;;;;5017992;28;19974;-78
2022/06/12 07:17:29;;;;;;;;;;;21.20;99.90;;;;;;4995248;28;20236;-78
2022/06/12 07:19:55;;;;;;;;;;;21.30;99.90;;;;;;5015615;28;20338;-77
2022/06/12 07:22:21;;;;;;;;;;;21.20;99.90;;;;;;4992962;28;20036;-79
2022/06/12 07:24:47;;;;;;;;;;;21.40;99.90;;;;;;4993674;28;19951;-77
2022/06/12 07:27:12;;;;;;;;;;;21.20;99.90;;;;;;5008171;28;20623;-78
2022/06/12 07:29:38;;;;;;;;;;;21.20;99.90;;;;;;5012503;28;19933;-79
2022/06/12 07:32:05;;;;;;;;;;;21.60;99.90;;;;;;5011692;28;19929;-78
2022/06/12 07:34:32;;;;;;;;;;;21.80;99.90;;;;;;5017002;28;19951;-79
2022/06/12 07:36:59;;;;;;;;;;;21.70;99.90;;;;;;4995782;28;19933;-79
2022/06/12 07:39:27;;;;;;;;;;;21.70;99.90;;;;;;4997220;28;20529;-78
2022/06/12 07:41:53;;;;;;;;;;;21.70;99.90;;;;;;5020842;28;19929;-78
2022/06/12 07:44:20;;;;;;;;;;;21.70;99.90;;;;;;4998673;28;20169;-78
2022/06/12 07:46:46;;;;;;;;;;;21.80;99.90;;;;;;4988460;28;19933;-78
2022/06/12 07:49:12;;;;;;;;;;;21.80;99.90;;;;;;5009281;28;19929;-78
2022/06/12 07:51:38;;;;;;;;;;;21.90;99.90;;;;;;5013676;28;20319;-78
2022/06/12 07:54:03;;;;;;;;;;;22.10;99.90;;;;;;5005743;28;19929;-78
2022/06/12 07:56:29;;;;;;;;;;;22.50;99.90;;;;;;5010864;28;19925;-78
2022/06/12 07:58:55;;;;;;;;;;;22.60;99.90;;;;;;4999917;28;20077;-78
2022/06/12 08:01:22;;;;;;;;;;;22.50;99.90;;;;;;5018222;28;20298;-79
2022/06/12 08:03:48;;;;;;;;;;;22.60;99.90;;;;;;5017655;28;20417;-78
2022/06/12 08:06:14;;;;;;;;;;;22.50;99.90;;;;;;4993649;28;19929;-78
2022/06/12 08:08:39;;;;;;;;;;;22.40;99.90;;;;;;5009420;28;19929;-77
2022/06/12 08:11:05;;;;;;;;;;;22.90;99.90;;;;;;4984451;28;19929;-77
2022/06/12 08:13:31;;;;;;;;;;;22.80;99.90;;;;;;5014740;28;20397;-78
2022/06/12 08:15:57;;;;;;;;;;;23.00;99.90;;;;;;5018585;28;19998;-78
2022/06/12 08:18:23;;;;;;;;;;;22.80;99.90;;;;;;5015075;28;20340;-77
2022/06/12 08:20:51;;;;;;;;;;;23.10;99.90;;;;;;5015341;28;19935;-78
2022/06/12 08:23:37;;;;;;;;;;;23.40;99.90;;;;;;5016547;28;19929;-78
2022/06/12 08:26:02;;;;;;;;;;;23.50;99.90;;;;;;4999211;28;19981;-78
2022/06/12 08:28:30;;;;;;;;;;;23.50;99.90;;;;;;5015939;28;20401;-78
2022/06/12 08:30:56;;;;;;;;;;;23.40;99.90;;;;;;5018243;28;19928;-78
2022/06/12 08:33:22;;;;;;;;;;;23.20;99.90;;;;;;5022580;28;19935;-78
2022/06/12 08:35:48;;;;;;;;;;;23.20;99.90;;;;;;5018962;28;19929;-78
2022/06/12 08:38:16;;;;;;;;;;;23.40;99.90;;;;;;5002043;28;21334;-78
2022/06/12 08:40:45;;;;;;;;;;;23.60;99.90;;;;;;4998250;28;19933;-79
2022/06/12 08:43:19;;;;;;;;;;;23.50;99.90;;;;;;5000379;28;20018;-79
2022/06/12 08:45:46;;;;;;;;;;;23.40;99.90;;;;;;4990527;28;19929;-78
2022/06/12 08:48:31;;;;;;;;;;;23.10;99.90;;;;;;4984404;28;19972;-79
2022/06/12 08:51:09;;;;;;;;;;;22.90;99.90;;;;;;4999146;28;20709;-79
2022/06/12 08:53:45;;;;;;;;;;;22.70;99.90;;;;;;4995706;28;20032;-79
2022/06/12 08:56:17;;;;;;;;;;;23.20;99.90;;;;;;4978008;28;19976;-80
2022/06/12 08:58:48;;;;;;;;;;;23.20;99.90;;;;;;4990530;28;19929;-79
2022/06/12 09:01:14;;;;;;;;;;;23.30;99.90;;;;;;4990871;28;19930;-80
2022/06/12 09:03:44;;;;;;;;;;;23.10;99.90;;;;;;5000877;28;20415;-80
2022/06/12 09:06:29;;;;;;;;;;;23.00;99.90;;;;;;5008848;28;19941;-79
2022/06/12 09:08:59;;;;;;;;;;;23.10;99.90;;;;;;4999890;28;19999;-80
2022/06/12 09:11:46;;;;;;;;;;;23.20;99.90;;;;;;5006095;28;20606;-80
2022/06/12 09:14:18;;;;;;;;;;;23.40;99.90;;;;;;5001749;28;19975;-79
2022/06/12 09:17:02;;;;;;;;;;;23.50;99.90;;;;;;5000900;28;19929;-78
2022/06/12 09:19:35;;;;;;;;;;;23.70;99.90;;;;;;5006073;28;19929;-80
2022/06/12 09:22:19;;;;;;;;;;;23.60;99.90;;;;;;4993146;28;20392;-79
2022/06/12 09:24:54;;;;;;;;;;;23.80;99.90;;;;;;4992564;28;19983;-79
2022/06/12 09:27:22;;;;;;;;;;;23.70;99.90;;;;;;5005590;28;19937;-79
2022/06/12 09:29:48;;;;;;;;;;;23.70;99.90;;;;;;5006297;28;20410;-79
2022/06/12 09:32:32;;;;;;;;;;;23.80;99.90;;;;;;5001318;28;19979;-79
2022/06/12 09:34:57;;;;;;;;;;;23.90;99.90;;;;;;5005965;28;20528;-77
2022/06/12 09:40:22;;;;;;;;;;;23.80;99.90;;;;;;5000522;28;19929;-79
2022/06/12 09:42:51;;;;;;;;;;;24.20;99.90;;;;;;5000857;28;20074;-79
2022/06/12 09:45:30;;;;;;;;;;;24.60;99.90;;;;;;5001944;28;20012;-80
2022/06/12 09:47:58;;;;;;;;;;;24.20;99.90;;;;;;5000935;28;20878;-80
2022/06/12 09:50:40;;;;;;;;;;;24.00;99.90;;;;;;4975151;28;19935;-80
2022/06/12 09:53:06;;;;;;;;;;;23.80;99.90;;;;;;4987622;28;19933;-80
2022/06/12 09:55:34;;;;;;;;;;;23.30;99.90;;;;;;4987926;28;19990;-81
2022/06/12 09:58:09;;;;;;;;;;;24.00;99.90;;;;;;5006540;28;20031;-79
2022/06/12 10:00:56;;;;;;;;;;;24.10;99.90;;;;;;4976957;28;20023;-81
2022/06/12 10:03:29;;;;;;;;;;;24.70;99.90;;;;;;4995023;28;19969;-81
2022/06/12 10:06:00;;;;;;;;;;;24.60;99.90;;;;;;4986323;28;21095;-81
2022/06/12 10:08:26;;;;;;;;;;;24.50;99.90;;;;;;4988778;28;20047;-79
2022/06/12 10:10:57;;;;;;;;;;;24.10;99.90;;;;;;4984322;28;19951;-80
2022/06/12 10:13:26;;;;;;;;;;;24.00;99.90;;;;;;4987859;28;19940;-80
2022/06/12 10:15:54;;;;;;;;;;;24.30;99.90;;;;;;4987995;28;19929;-81
2022/06/12 10:18:24;;;;;;;;;;;23.40;99.90;;;;;;4964777;28;19929;-80
2022/06/12 10:20:54;;;;;;;;;;;23.30;99.90;;;;;;4962377;28;19936;-79
2022/06/12 10:23:20;;;;;;;;;;;22.90;99.90;;;;;;4978216;28;19936;-82
2022/06/12 10:25:49;;;;;;;;;;;23.30;99.90;;;;;;4963652;28;19983;-81
2022/06/12 10:28:14;;;;;;;;;;;23.50;99.90;;;;;;4965374;28;19940;-81
2022/06/12 10:30:42;;;;;;;;;;;24.00;99.90;;;;;;4985935;28;19929;-80
2022/06/12 10:33:22;;;;;;;;;;;23.60;99.90;;;;;;4965465;28;19929;-75
2022/06/12 10:35:49;;;;;;;;;;;23.40;99.90;;;;;;4959881;28;20887;-79
2022/06/12 10:38:15;;;;;;;;;;;23.80;99.90;;;;;;4977791;28;20003;-78
2022/06/12 10:40:47;;;;;;;;;;;24.20;99.90;;;;;;4969749;28;20073;-81
2022/06/12 10:43:39;;;;;;;;;;;24.60;99.90;;;;;;4979134;28;19935;-81
2022/06/12 10:46:06;;;;;;;;;;;24.60;99.90;;;;;;4978855;28;19960;-80
2022/06/12 10:48:34;;;;;;;;;;;24.70;99.90;;;;;;4997535;28;20298;-82
2022/06/12 10:51:02;;;;;;;;;;;24.50;99.90;;;;;;4960945;28;19956;-82
2022/06/12 10:53:29;;;;;;;;;;;24.80;99.90;;;;;;4983853;28;19936;-81
2022/06/12 10:55:55;;;;;;;;;;;24.80;99.90;;;;;;4993676;28;19994;-81
2022/06/12 10:58:33;;;;;;;;;;;24.60;99.90;;;;;;4976024;28;20067;-80
2022/06/12 11:01:03;;;;;;;;;;;24.50;99.90;;;;;;4977242;28;19932;-82
2022/06/12 11:03:54;;;;;;;;;;;24.50;99.90;;;;;;4986743;28;20279;-80
2022/06/12 11:06:27;;;;;;;;;;;24.70;99.90;;;;;;4990320;28;19986;-81
2022/06/12 11:08:56;;;;;;;;;;;25.00;99.90;;;;;;5003103;28;20019;-80
2022/06/12 11:11:44;;;;;;;;;;;25.10;99.90;;;;;;5008856;28;19925;-80
2022/06/12 11:14:23;;;;;;;;;;;25.00;99.10;;;;;;4995774;28;20037;-80
2022/06/12 11:16:56;;;;;;;;;;;25.20;99.90;;;;;;5014073;28;19937;-80
2022/06/12 11:19:28;;;;;;;;;;;25.30;99.90;;;;;;5007069;28;19928;-80
2022/06/12 11:22:09;;;;;;;;;;;25.10;99.90;;;;;;4987051;28;20787;-82
2022/06/12 11:24:52;;;;;;;;;;;24.80;99.00;;;;;;5005821;28;19940;-78
2022/06/12 11:27:23;;;;;;;;;;;24.50;99.90;;;;;;5003823;28;19935;-78
2022/06/12 11:29:52;;;;;;;;;;;24.80;99.90;;;;;;4989001;28;20673;-78
2022/06/12 11:32:32;;;;;;;;;;;25.40;99.90;;;;;;5014950;28;19936;-79
2022/06/12 11:35:03;;;;;;;;;;;24.90;99.90;;;;;;5008724;28;19932;-78
2022/06/12 11:37:35;;;;;;;;;;;24.30;99.90;;;;;;5004774;28;20573;-78
2022/06/12 11:40:07;;;;;;;;;;;24.70;99.90;;;;;;5005276;28;20039;-80
2022/06/12 11:42:39;;;;;;;;;;;24.60;99.90;;;;;;5008983;28;19929;-78
2022/06/12 11:45:04;;;;;;;;;;;24.60;99.90;;;;;;4993595;28;19955;-80
2022/06/12 11:47:30;;;;;;;;;;;24.40;99.90;;;;;;5006016;28;20595;-78
2022/06/12 11:50:11;;;;;;;;;;;24.70;99.90;;;;;;5005496;28;19982;-81
2022/06/12 11:52:50;;;;;;;;;;;24.80;99.90;;;;;;5008321;28;19933;-79
2022/06/12 11:55:34;;;;;;;;;;;24.20;99.70;;;;;;5007689;28;19929;-79
2022/06/12 11:58:06;;;;;;;;;;;24.60;99.90;;;;;;5008384;28;19936;-79
2022/06/12 12:00:55;;;;;;;;;;;24.60;99.90;;;;;;5011504;28;19928;-79
2022/06/12 12:03:39;;;;;;;;;;;24.90;99.90;;;;;;4984578;28;19936;-82
2022/06/12 12:06:20;;;;;;;;;;;24.90;98.40;;;;;;4987828;28;20412;-78
2022/06/12 12:08:48;;;;;;;;;;;25.00;97.40;;;;;;5008868;28;20086;-80
2022/06/12 12:11:44;;;;;;;;;;;24.90;99.90;;;;;;5013109;28;19928;-81
2022/06/12 12:14:12;;;;;;;;;;;24.80;97.60;;;;;;4991943;28;19935;-79
2022/06/12 12:16:43;;;;;;;;;;;24.90;98.20;;;;;;5005461;28;19971;-82
2022/06/12 12:19:18;;;;;;;;;;;24.80;99.20;;;;;;5013216;28;19933;-77
2022/06/12 12:21:55;;;;;;;;;;;25.00;98.20;;;;;;5012814;28;19937;-80
2022/06/12 12:24:23;;;;;;;;;;;25.10;98.20;;;;;;5008577;28;19933;-78
2022/06/12 12:26:49;;;;;;;;;;;25.10;98.40;;;;;;5000717;28;20354;-81
2022/06/12 12:29:22;;;;;;;;;;;25.30;97.70;;;;;;5015224;28;19924;-80
2022/06/12 12:31:49;;;;;;;;;;;25.40;98.80;;;;;;5011701;28;19936;-79
2022/06/12 12:34:16;;;;;;;;;;;25.30;98.20;;;;;;4990375;28;19936;-80
2022/06/12 12:42:22;;;;;;;;;;;24.90;97.60;;;;;;5016368;28;21660;-80
2022/06/12 12:44:49;;;;;;;;;;;24.70;97.40;;;;;;4995288;28;20494;-79
2022/06/12 12:47:28;;;;;;;;;;;24.60;97.80;;;;;;4993604;28;19936;-79
2022/06/12 12:50:23;;;;;;;;;;;24.80;98.90;;;;;;5017126;28;19987;-79
2022/06/12 12:52:51;;;;;;;;;;;24.90;98.20;;;;;;4988680;28;19933;-79
2022/06/12 12:55:22;;;;;;;;;;;24.60;96.30;;;;;;5015922;28;19928;-81
2022/06/12 12:57:48;;;;;;;;;;;24.70;99.90;;;;;;4998040;28;19933;-81
2022/06/12 13:00:17;;;;;;;;;;;24.30;97.50;;;;;;5000681;28;20049;-79
2022/06/12 13:02:48;;;;;;;;;;;24.60;99.70;;;;;;5017592;28;19928;-79
2022/06/12 13:05:22;;;;;;;;;;;24.70;97.10;;;;;;5018397;28;19928;-79
2022/06/12 13:08:06;;;;;;;;;;;24.80;96.80;;;;;;5017001;28;19940;-80
2022/06/12 13:10:44;;;;;;;;;;;24.80;97.10;;;;;;5019833;28;20506;-80
2022/06/12 13:13:21;;;;;;;;;;;24.80;96.50;;;;;;5020495;28;19955;-80
2022/06/12 13:16:03;;;;;;;;;;;24.80;97.00;;;;;;4998001;28;19998;-80
2022/06/12 13:18:28;;;;;;;;;;;24.60;96.40;;;;;;5016463;28;19960;-80
2022/06/12 13:20:59;;;;;;;;;;;25.10;96.20;;;;;;5015435;28;19932;-80
2022/06/12 13:23:25;;;;;;;;;;;24.90;95.70;;;;;;5001094;28;19972;-81
2022/06/12 13:25:52;;;;;;;;;;;25.00;96.30;;;;;;5017908;28;20015;-82
2022/06/12 13:28:27;;;;;;;;;;;24.60;94.60;;;;;;5015575;28;19952;-79
2022/06/12 13:30:54;;;;;;;;;;;24.60;95.60;;;;;;5011657;28;19933;-81
2022/06/12 13:33:23;;;;;;;;;;;24.40;94.40;;;;;;5017911;28;20317;-79
2022/06/12 13:35:50;;;;;;;;;;;24.60;96.00;;;;;;5018775;28;20342;-81
2022/06/12 13:38:27;;;;;;;;;;;24.70;96.80;;;;;;5015421;28;19929;-81
2022/06/12 13:41:04;;;;;;;;;;;24.50;96.10;;;;;;5014430;28;19936;-79
2022/06/12 13:43:38;;;;;;;;;;;24.80;96.10;;;;;;5018812;28;19952;-80
2022/06/12 13:46:05;;;;;;;;;;;24.50;96.10;;;;;;5015202;28;19998;-79
2022/06/12 13:48:33;;;;;;;;;;;24.20;95.00;;;;;;4997659;28;19933;-80
2022/06/12 13:50:58;;;;;;;;;;;23.90;93.70;;;;;;5015594;28;19983;-79
2022/06/12 13:53:24;;;;;;;;;;;23.90;95.60;;;;;;5017994;28;20336;-81
2022/06/12 13:55:55;;;;;;;;;;;24.20;96.90;;;;;;5018376;28;19968;-81
2022/06/12 13:58:34;;;;;;;;;;;23.80;94.60;;;;;;5016952;28;20213;-79
2022/06/12 14:01:01;;;;;;;;;;;24.10;96.80;;;;;;4995031;28;19929;-81
2022/06/12 14:03:38;;;;;;;;;;;23.90;95.90;;;;;;5001286;28;20267;-80
2022/06/12 14:06:07;;;;;;;;;;;23.90;96.50;;;;;;5017190;28;19983;-81
2022/06/12 14:08:33;;;;;;;;;;;24.10;94.30;;;;;;4999206;28;19925;-80
2022/06/12 14:10:59;;;;;;;;;;;23.90;96.70;;;;;;5015100;28;21084;-78
2022/06/12 14:13:25;;;;;;;;;;;23.70;93.70;;;;;;5015075;28;20060;-80
2022/06/12 14:15:51;;;;;;;;;;;23.70;94.80;;;;;;4994094;28;20388;-79
2022/06/12 14:18:28;;;;;;;;;;;24.00;97.50;;;;;;5013598;28;19944;-83
2022/06/12 14:21:02;;;;;;;;;;;24.00;94.30;;;;;;4998815;28;19925;-80
2022/06/12 14:23:28;;;;;;;;;;;24.00;96.10;;;;;;4999416;28;19935;-80
2022/06/12 14:26:00;;;;;;;;;;;23.90;94.90;;;;;;5000153;28;20016;-79
2022/06/12 14:28:27;;;;;;;;;;;23.40;93.30;;;;;;4977585;28;19932;-81
2022/06/12 14:30:56;;;;;;;;;;;23.20;94.80;;;;;;4999017;28;19928;-80
2022/06/12 14:33:23;;;;;;;;;;;23.20;96.50;;;;;;5013203;28;20044;-81
2022/06/12 14:35:49;;;;;;;;;;;22.80;94.90;;;;;;4995348;28;19933;-78
2022/06/12 14:38:18;;;;;;;;;;;22.70;94.60;;;;;;4971937;28;20259;-79
2022/06/12 14:40:44;;;;;;;;;;;22.70;93.90;;;;;;5005500;28;19956;-79
2022/06/12 14:43:28;;;;;;;;;;;22.70;94.40;;;;;;4997186;28;19929;-81
2022/06/12 14:46:14;;;;;;;;;;;22.50;95.40;;;;;;4993918;28;20836;-81
2022/06/12 14:48:39;;;;;;;;;;;22.70;96.90;;;;;;5013045;28;19929;-79
2022/06/12 14:51:05;;;;;;;;;;;23.00;95.30;;;;;;4991292;28;19936;-81